Time;durP1;ratioP1;P1;durP2;ratioP2;P2;SDS_P1;SDS_P2;PMS_P1;PMS_P2;Temp;Humidity;BMP_temperature;BMP_pressure;BME280_temperature;BME280_humidity;BME280_pressure;Samples;Min_cycle;Max_cycle;Signal;HPM_P1;HPM_P2
2021/11/14 00:00:40;;;;;;;0.38;0.38;;;;;;;14.40;68.94;101823.25;5073241;28;20031;-84
2021/11/14 00:03:07;;;;;;;0.20;0.20;;;;;;;14.39;69.10;101825.94;5090510;28;20028;-84
2021/11/14 00:05:35;;;;;;;0.85;0.85;;;;;;;14.39;69.04;101820.59;5091001;28;20052;-84
2021/11/14 00:08:02;;;;;;;0.10;0.10;;;;;;;14.38;69.04;101818.84;5091542;28;20051;-84
2021/11/14 00:10:30;;;;;;;0.10;0.10;;;;;;;14.36;68.88;101828.69;5090657;28;20112;-84
2021/11/14 00:12:56;;;;;;;0.10;0.10;;;;;;;14.37;68.90;101827.78;5086455;28;20020;-84
2021/11/14 00:15:23;;;;;;;0.10;0.10;;;;;;;14.35;69.08;101824.25;5077385;28;20037;-85
2021/11/14 00:17:49;;;;;;;0.30;0.30;;;;;;;14.34;68.92;101823.38;5077429;28;20032;-84
2021/11/14 00:20:16;;;;;;;0.10;0.10;;;;;;;14.33;68.93;101832.28;5077270;28;20371;-84
2021/11/14 00:22:43;;;;;;;0.10;0.10;;;;;;;14.33;68.94;101836.72;5059665;28;20101;-86
2021/11/14 00:25:13;;;;;;;0.10;0.10;;;;;;;14.33;69.00;101836.72;5076795;28;20365;-83
2021/11/14 00:27:40;;;;;;;0.10;0.10;;;;;;;14.33;69.08;101839.38;5077150;28;20024;-84
2021/11/14 00:30:07;;;;;;;0.10;0.10;;;;;;;14.31;69.03;101843.88;5076539;28;20029;-85
2021/11/14 00:32:34;;;;;;;0.10;0.10;;;;;;;14.30;68.89;101844.78;5075978;28;20063;-85
2021/11/14 00:35:02;;;;;;;0.10;0.10;;;;;;;14.29;68.90;101843.88;5077508;28;20078;-85
2021/11/14 00:37:29;;;;;;;0.10;0.10;;;;;;;14.28;68.86;101849.25;5077170;28;20027;-85
2021/11/14 00:39:56;;;;;;;0.10;0.10;;;;;;;14.27;68.87;101847.50;5077092;28;20074;-85
2021/11/14 00:42:22;;;;;;;0.10;0.10;;;;;;;14.27;69.06;101852.81;5081919;22;20041;-78
2021/11/14 00:44:48;;;;;;;0.10;0.10;;;;;;;14.26;68.88;101861.75;5055955;28;20059;-82
2021/11/14 00:47:15;;;;;;;0.10;0.10;;;;;;;14.24;68.96;101854.66;5056012;28;20025;-81
2021/11/14 00:49:41;;;;;;;0.10;0.10;;;;;;;14.22;68.96;101853.81;5055497;28;20021;-81
2021/11/14 00:52:07;;;;;;;0.32;0.32;;;;;;;14.20;68.99;101850.28;5055728;28;20033;-80
2021/11/14 00:54:33;;;;;;;0.35;0.35;;;;;;;14.20;69.00;101852.94;5056108;28;20052;-80
2021/11/14 00:57:00;;;;;;;0.15;0.15;;;;;;;14.20;69.14;101852.94;5056083;28;20128;-78
2021/11/14 00:59:26;;;;;;;0.10;0.10;;;;;;;14.20;68.94;101852.94;5055753;28;20040;-81
2021/11/14 01:01:52;;;;;;;0.38;0.38;;;;;;;14.19;69.01;101851.22;5055692;28;20396;-79
2021/11/14 01:04:18;;;;;;;0.10;0.10;;;;;;;14.16;69.04;101848.59;5055688;28;20025;-80
2021/11/14 01:06:45;;;;;;;0.10;0.10;;;;;;;14.15;68.88;101844.16;5055341;28;20129;-79
2021/11/14 01:09:11;;;;;;;0.20;0.20;;;;;;;14.13;69.16;101846.00;5055587;28;20021;-78
2021/11/14 01:11:37;;;;;;;0.10;0.10;;;;;;;14.07;69.23;101851.44;5055562;28;20468;-80
2021/11/14 01:14:04;;;;;;;1.17;0.75;;;;;;;14.06;69.10;101861.19;5055226;28;20436;-79
2021/11/14 01:16:30;;;;;;;0.10;0.10;;;;;;;14.07;69.18;101868.28;5055643;28;20037;-78
2021/11/14 01:18:57;;;;;;;0.10;0.10;;;;;;;14.08;69.34;101869.16;5055405;28;20037;-77
2021/11/14 01:21:27;;;;;;;0.25;0.25;;;;;;;14.11;69.01;101879.78;5055468;28;20461;-78
2021/11/14 01:23:55;;;;;;;0.25;0.25;;;;;;;14.13;69.10;101875.31;5055019;28;20036;-80
2021/11/14 01:26:22;;;;;;;0.10;0.10;;;;;;;14.12;69.29;101892.22;5053943;28;20033;-80
2021/11/14 01:28:49;;;;;;;0.13;0.13;;;;;;;14.18;69.23;101885.88;5054998;28;20447;-78
2021/11/14 01:31:15;;;;;;;0.10;0.10;;;;;;;14.15;69.11;101897.47;5055579;28;20386;-77
2021/11/14 01:33:42;;;;;;;0.10;0.10;;;;;;;14.19;68.86;101904.53;5055419;28;20033;-79
2021/11/14 01:36:08;;;;;;;0.15;0.15;;;;;;;14.21;68.88;101896.50;5055269;28;20532;-77
2021/11/14 01:38:35;;;;;;;0.10;0.10;;;;;;;14.18;68.79;101907.19;5054782;28;20024;-77
2021/11/14 01:41:04;;;;;;;0.10;0.10;;;;;;;14.18;68.97;101901.84;5054741;28;20357;-80
2021/11/14 01:43:35;;;;;;;0.17;0.17;;;;;;;14.20;68.85;101903.59;5053868;28;20040;-78
2021/11/14 01:46:03;;;;;;;0.22;0.22;;;;;;;14.20;69.01;101911.59;5055175;28;20503;-78
2021/11/14 01:48:29;;;;;;;0.38;0.38;;;;;;;14.20;69.01;101911.59;5054908;28;20118;-79
2021/11/14 01:50:56;;;;;;;1.35;0.90;;;;;;;14.20;68.88;101914.25;5054979;28;20514;-79
2021/11/14 01:53:25;;;;;;;0.65;0.65;;;;;;;14.21;68.95;101923.16;5054537;28;20392;-78
2021/11/14 01:55:52;;;;;;;0.20;0.20;;;;;;;14.19;69.08;101924.94;5054909;28;20113;-79
2021/11/14 01:58:30;;;;;;;0.40;0.40;;;;;;;14.24;68.86;101917.75;5054513;28;20024;-79
2021/11/14 02:01:13;;;;;;;0.10;0.10;;;;;;;14.25;69.27;101922.16;5054078;28;20102;-79
2021/11/14 02:03:54;;;;;;;;;;;;;;;14.34;68.93;101916.69;5054163;28;20028;-80
2021/11/14 02:06:22;;;;;;;0.30;0.30;;;;;;;14.26;68.78;101931.06;5053449;28;20356;-78
2021/11/14 02:08:48;;;;;;;0.95;0.95;;;;;;;14.26;68.85;101931.06;5036832;28;20427;-79
2021/11/14 02:11:19;;;;;;;0.10;0.10;;;;;;;14.27;68.86;101927.47;5054193;28;20476;-79
2021/11/14 02:13:47;;;;;;;0.10;0.10;;;;;;;14.28;69.16;101931.91;5054222;28;20055;-78
2021/11/14 02:16:16;;;;;;;0.10;0.10;;;;;;;14.28;69.15;101934.56;5054303;28;20031;-79
2021/11/14 02:18:42;;;;;;;0.85;0.63;;;;;;;14.28;69.06;101929.22;5054008;28;20112;-79
2021/11/14 02:21:09;;;;;;;0.10;0.10;;;;;;;14.28;68.97;101932.78;5036540;28;20105;-79
2021/11/14 02:23:36;;;;;;;0.10;0.10;;;;;;;14.29;69.08;101937.19;5054590;28;20029;-78
2021/11/14 02:26:03;;;;;;;0.08;0.08;;;;;;;14.31;69.00;101937.19;5054361;28;20480;-79
2021/11/14 02:28:30;;;;;;;0.17;0.17;;;;;;;14.31;69.10;101935.38;5054082;28;20054;-79
2021/11/14 02:30:57;;;;;;;1.30;1.27;;;;;;;14.33;69.01;101946.03;5054205;28;20424;-78
2021/11/14 02:33:26;;;;;;;0.20;0.20;;;;;;;14.32;68.87;101952.28;5053519;28;20033;-79
2021/11/14 02:35:57;;;;;;;0.88;0.73;;;;;;;14.31;68.97;101954.06;5053684;28;20084;-77
2021/11/14 02:38:24;;;;;;;0.20;0.20;;;;;;;14.31;68.93;101947.84;5054069;28;20033;-78
2021/11/14 02:40:51;;;;;;;1.83;0.40;;;;;;;14.32;68.70;101953.16;5035893;28;20029;-77
2021/11/14 02:43:18;;;;;;;0.25;0.25;;;;;;;14.33;68.84;101951.34;5053700;28;20414;-76
2021/11/14 02:45:45;;;;;;;0.47;0.47;;;;;;;14.32;69.29;101952.28;5054588;28;20029;-77
2021/11/14 02:48:13;;;;;;;0.10;0.10;;;;;;;14.33;69.24;101946.03;5054079;28;20056;-77
2021/11/14 02:50:40;;;;;;;0.10;0.10;;;;;;;14.33;69.02;101954.91;5054420;28;20031;-77
2021/11/14 02:53:08;;;;;;;0.10;0.10;;;;;;;14.33;68.92;101959.34;5054155;28;20146;-77
2021/11/14 02:55:35;;;;;;;0.57;0.57;;;;;;;14.32;68.95;101954.94;5053236;28;20036;-78
2021/11/14 02:58:02;;;;;;;0.22;0.22;;;;;;;14.32;68.85;101962.94;5053545;28;20029;-78
2021/11/14 03:00:33;;;;;;;0.10;0.10;;;;;;;14.33;68.74;101964.69;5054050;28;20033;-78
2021/11/14 03:03:07;;;;;;;0.10;0.10;;;;;;;14.33;68.87;101970.00;5053555;28;20032;-76
2021/11/14 03:05:34;;;;;;;0.10;0.10;;;;;;;14.30;68.83;101970.94;5052919;28;20494;-78
2021/11/14 03:08:00;;;;;;;0.10;0.10;;;;;;;14.31;68.70;101972.72;5053736;28;20025;-79
2021/11/14 03:10:29;;;;;;;0.73;0.73;;;;;;;14.32;68.70;101968.28;5053871;28;20516;-80
2021/11/14 03:15:46;;;;;;;0.10;0.10;;;;;;;14.31;69.05;101972.72;5068066;27;20722;-79
2021/11/14 03:18:13;;;;;;;0.10;0.10;;;;;;;14.30;68.72;101986.06;5067906;28;20356;-79
2021/11/14 03:20:41;;;;;;;0.10;0.10;;;;;;;14.28;68.66;101977.22;5067850;28;20077;-77
2021/11/14 03:23:10;;;;;;;0.10;0.10;;;;;;;14.27;68.76;101986.13;5067280;28;20387;-78
2021/11/14 03:25:37;;;;;;;0.00;0.00;;;;;;;14.26;68.66;101989.72;5068370;28;20395;-79
2021/11/14 03:28:06;;;;;;;0.35;0.35;;;;;;;14.26;68.53;101993.25;5067289;28;20025;-79
2021/11/14 03:30:33;;;;;;;0.20;0.20;;;;;;;14.24;68.79;101992.38;5067859;28;20027;-79
2021/11/14 03:33:05;;;;;;;0.10;0.10;;;;;;;14.24;68.85;101989.72;5067132;28;20033;-80
2021/11/14 03:35:43;;;;;;;0.57;0.57;;;;;;;14.26;68.40;101998.56;5067359;28;20061;-79
2021/11/14 03:38:11;;;;;;;0.10;0.10;;;;;;;14.17;68.61;102012.94;5067654;28;20283;-79
2021/11/14 03:40:39;;;;;;;0.10;0.10;;;;;;;14.16;68.87;102013.84;5067622;28;20029;-78
2021/11/14 03:43:05;;;;;;;0.10;0.10;;;;;;;14.16;68.86;102005.84;5082393;22;20049;-84
2021/11/14 03:45:31;;;;;;;0.10;0.10;;;;;;;14.15;68.79;102012.06;5071593;28;20439;-84
2021/11/14 03:47:59;;;;;;;0.20;0.20;;;;;;;14.16;68.80;102021.84;5071333;28;20021;-84
2021/11/14 03:50:26;;;;;;;0.10;0.10;;;;;;;14.14;68.88;102012.97;5071934;28;20029;-84
2021/11/14 03:52:52;;;;;;;0.10;0.10;;;;;;;14.14;68.63;102018.31;5071188;28;20384;-84
2021/11/14 03:55:19;;;;;;;0.10;0.10;;;;;;;14.15;68.46;102019.19;5071541;28;20353;-85
2021/11/14 03:57:46;;;;;;;0.70;0.70;;;;;;;14.18;68.85;102027.13;5070434;28;20060;-84
2021/11/14 04:00:20;;;;;;;0.57;0.40;;;;;;;14.15;68.52;102024.53;5071179;28;20029;-84
2021/11/14 04:02:49;;;;;;;0.25;0.25;;;;;;;14.13;68.66;102029.91;5071397;28;20040;-84
2021/11/14 04:05:16;;;;;;;0.25;0.25;;;;;;;14.14;68.90;102028.09;5071613;28;20025;-83
2021/11/14 04:07:43;;;;;;;0.10;0.10;;;;;;;14.14;68.99;102028.97;5070844;28;20028;-84
2021/11/14 04:10:10;;;;;;;0.08;0.08;;;;;;;14.14;69.00;102028.97;5070577;28;20032;-85
2021/11/14 04:12:38;;;;;;;0.10;0.10;;;;;;;14.14;68.76;102026.28;5070660;28;20115;-84
2021/11/14 04:15:08;;;;;;;0.10;0.10;;;;;;;14.15;68.61;102033.41;5070137;28;20094;-85
2021/11/14 04:17:35;;;;;;;0.20;0.20;;;;;;;14.13;68.68;102035.22;5070670;28;20483;-84
2021/11/14 04:20:03;;;;;;;0.50;0.50;;;;;;;14.13;68.83;102043.22;5071374;28;20488;-84
2021/11/14 04:22:29;;;;;;;0.40;0.40;;;;;;;14.14;68.93;102042.28;5071004;28;20029;-84
2021/11/14 04:24:56;;;;;;;0.20;0.20;;;;;;;14.13;68.80;102043.22;5069762;28;20039;-84
2021/11/14 04:27:22;;;;;;;0.10;0.10;;;;;;;14.14;68.76;102044.09;5057692;28;20033;-84
2021/11/14 04:29:48;;;;;;;0.57;0.57;;;;;;;14.15;69.00;102046.72;5057749;28;20445;-84
2021/11/14 04:32:15;;;;;;;0.10;0.10;;;;;;;14.12;68.72;102041.44;5057102;28;20068;-84
2021/11/14 04:34:41;;;;;;;0.43;0.43;;;;;;;14.06;69.24;102047.75;5057434;28;20120;-84
2021/11/14 04:37:08;;;;;;;1.17;1.08;;;;;;;14.05;69.20;102050.44;5057606;28;20035;-84
2021/11/14 04:39:34;;;;;;;2.17;1.98;;;;;;;14.14;68.65;102055.63;5057265;28;20033;-84
2021/11/14 04:42:03;;;;;;;4.03;1.10;;;;;;;14.16;68.64;102052.94;5056253;28;20029;-85
2021/11/14 04:44:29;;;;;;;0.28;0.28;;;;;;;14.15;68.58;102057.38;5056803;28;20040;-85
2021/11/14 04:46:55;;;;;;;0.43;0.43;;;;;;;14.14;68.75;102066.28;5056325;28;20029;-85
2021/11/14 04:49:22;;;;;;;0.10;0.10;;;;;;;14.14;68.31;102057.41;5039104;28;20029;-84
2021/11/14 04:51:49;;;;;;;0.10;0.10;;;;;;;14.14;68.80;102060.94;5056306;28;20464;-84
2021/11/14 04:54:17;;;;;;;0.10;0.10;;;;;;;14.13;68.67;102067.22;5056560;28;20040;-84
2021/11/14 04:56:45;;;;;;;0.17;0.17;;;;;;;14.12;68.47;102068.09;5057306;28;20025;-84
2021/11/14 04:59:11;;;;;;;0.43;0.43;;;;;;;14.13;68.83;102069.88;5057232;28;20025;-84
2021/11/14 05:01:38;;;;;;;0.10;0.10;;;;;;;14.13;68.58;102074.31;5057043;28;20025;-84
2021/11/14 05:04:05;;;;;;;0.10;0.10;;;;;;;14.12;68.69;102073.44;5056776;28;20092;-84
2021/11/14 05:06:32;;;;;;;0.10;0.10;;;;;;;14.05;68.98;102077.97;5055872;28;20127;-84
2021/11/14 05:08:59;;;;;;;0.32;0.32;;;;;;;14.01;69.24;102081.56;5056983;28;20032;-85
2021/11/14 05:14:05;;;;;;;0.10;0.10;;;;;;;13.98;69.15;102080.75;5073670;28;20448;-81
2021/11/14 05:16:32;;;;;;;0.47;0.47;;;;;;;13.97;69.01;102084.31;5075115;28;20024;-85
2021/11/14 05:18:59;;;;;;;0.10;0.10;;;;;;;13.95;68.85;102091.47;5074993;28;20035;-85
2021/11/14 05:21:25;;;;;;;0.45;0.28;;;;;;;13.93;69.10;102093.25;5074783;28;20470;-84
2021/11/14 05:23:51;;;;;;;0.10;0.10;;;;;;;13.89;68.67;102093.31;5074710;28;20079;-85
2021/11/14 05:26:18;;;;;;;0.10;0.10;;;;;;;13.89;68.93;102095.97;5075018;28;20043;-84
2021/11/14 05:28:45;;;;;;;0.63;0.63;;;;;;;13.87;69.01;102097.78;5075394;28;20088;-85
2021/11/14 05:31:11;;;;;;;0.47;0.47;;;;;;;13.87;69.25;102100.44;5075177;28;20031;-84
2021/11/14 05:33:37;;;;;;;0.10;0.10;;;;;;;13.84;69.21;102100.47;5074530;28;20027;-85
2021/11/14 05:36:04;;;;;;;1.25;0.40;;;;;;;13.84;68.74;102107.59;5074976;28;20025;-81
2021/11/14 05:38:30;;;;;;;0.17;0.17;;;;;;;13.82;68.97;102101.38;5073701;28;20036;-84
2021/11/14 05:40:56;;;;;;;0.25;0.25;;;;;;;13.79;69.02;102107.63;5074586;28;20116;-85
2021/11/14 05:43:23;;;;;;;0.10;0.10;;;;;;;13.78;68.99;102111.19;5074225;28;20032;-84
2021/11/14 05:45:49;;;;;;;0.10;0.10;;;;;;;13.78;68.71;102113.00;5074847;28;20090;-85
2021/11/14 05:48:15;;;;;;;0.22;0.22;;;;;;;13.79;69.28;102120.94;5074702;28;20029;-83
2021/11/14 05:50:41;;;;;;;0.30;0.30;;;;;;;13.76;68.78;102118.34;5074422;28;20075;-83
2021/11/14 05:53:09;;;;;;;0.10;0.10;;;;;;;13.77;68.74;102124.53;5074258;28;20157;-83
2021/11/14 05:55:36;;;;;;;0.20;0.20;;;;;;;13.76;68.81;102137.00;5074178;28;20047;-82
2021/11/14 05:58:05;;;;;;;0.30;0.30;;;;;;;13.72;68.85;102132.59;5074322;28;20032;-82
2021/11/14 06:01:11;;;;;;;0.98;0.90;;;;;;;13.69;69.09;102132.63;5074261;28;20380;-84
2021/11/14 06:03:29;;;;;;;0.00;0.00;;;;;;;13.70;68.88;102137.94;5073758;28;20471;-85
2021/11/14 06:05:56;;;;;;;0.10;0.10;;;;;;;13.70;69.09;102147.72;5074187;28;20035;-84
2021/11/14 06:08:22;;;;;;;0.17;0.17;;;;;;;13.68;68.77;102144.19;5074533;28;20467;-84
2021/11/14 06:10:51;;;;;;;0.32;0.32;;;;;;;13.70;69.23;102148.59;5073721;28;20037;-85
2021/11/14 06:13:20;;;;;;;0.77;0.77;;;;;;;13.71;68.97;102152.16;5073531;28;20575;-84
2021/11/14 06:15:48;;;;;;;0.38;0.38;;;;;;;13.66;68.67;102162.84;5074195;28;20475;-85
2021/11/14 06:18:14;;;;;;;0.10;0.10;;;;;;;13.63;68.89;102162.00;5073864;28;20490;-83
2021/11/14 06:20:40;;;;;;;0.52;0.52;;;;;;;13.62;69.17;102158.47;5074292;28;20043;-84
2021/11/14 06:23:07;;;;;;;1.75;1.65;;;;;;;13.71;68.72;102162.81;5073881;28;20035;-84
2021/11/14 06:25:34;;;;;;;0.10;0.10;;;;;;;13.61;68.92;102163.78;5074021;28;20116;-84
2021/11/14 06:28:00;;;;;;;0.10;0.10;;;;;;;13.58;68.74;102172.69;5073931;28;20074;-85
2021/11/14 06:30:26;;;;;;;0.10;0.10;;;;;;;13.67;68.31;102177.03;5074036;28;20036;-84
2021/11/14 06:32:53;;;;;;;0.32;0.32;;;;;;;13.67;68.59;102177.03;5055422;28;20082;-81
2021/11/14 06:35:19;;;;;;;1.23;1.23;;;;;;;13.57;68.89;102186.91;5073829;28;20036;-84
2021/11/14 06:37:45;;;;;;;0.20;0.20;;;;;;;13.54;68.66;102187.81;5073579;28;20025;-85
2021/11/14 06:40:12;;;;;;;0.10;0.10;;;;;;;13.55;69.04;102194.91;5073841;28;20505;-85
2021/11/14 06:42:38;;;;;;;0.15;0.15;;;;;;;13.55;68.83;102194.06;5077694;22;20485;-84
2021/11/14 06:45:05;;;;;;;0.10;0.10;;;;;;;13.55;69.06;102194.06;4973562;28;20108;-84
2021/11/14 06:47:32;;;;;;;0.17;0.17;;;;;;;13.55;69.15;102202.91;4973244;28;20031;-84
2021/11/14 06:49:58;;;;;;;0.10;0.10;;;;;;;13.53;69.11;102215.38;4972393;28;20037;-84
2021/11/14 06:52:25;;;;;;;2.10;0.43;;;;;;;13.54;69.12;102214.44;4974091;28;20034;-84
2021/11/14 06:54:52;;;;;;;0.25;0.25;;;;;;;13.52;69.28;102221.59;4973160;28;20125;-83
2021/11/14 06:57:19;;;;;;;1.13;1.05;;;;;;;13.50;68.91;102225.19;4973654;28;20031;-83
2021/11/14 06:59:46;;;;;;;0.00;0.00;;;;;;;13.47;68.85;102228.75;4974043;28;20030;-85
2021/11/14 07:02:12;;;;;;;0.17;0.17;;;;;;;13.42;68.79;102226.13;4973616;28;20038;-84
2021/11/14 07:04:40;;;;;;;0.00;0.00;;;;;;;13.43;69.25;102227.91;4973080;28;20038;-84
2021/11/14 07:07:07;;;;;;;1.48;1.38;;;;;;;13.41;68.87;102237.66;4973034;28;20339;-85
2021/11/14 07:09:33;;;;;;;0.65;0.65;;;;;;;13.41;69.24;102237.66;4971901;28;20466;-84
2021/11/14 07:11:59;;;;;;;0.30;0.30;;;;;;;13.45;69.14;102245.63;4972920;28;20027;-84
2021/11/14 07:14:27;;;;;;;0.13;0.13;;;;;;;13.46;68.91;102247.38;4973543;28;20031;-84
2021/11/14 07:16:54;;;;;;;0.10;0.10;;;;;;;13.47;69.24;102258.03;4973322;28;20023;-84
2021/11/14 07:19:20;;;;;;;0.32;0.32;;;;;;;13.48;69.27;102256.25;4972774;28;20031;-84
2021/11/14 07:21:46;;;;;;;0.47;0.47;;;;;;;13.46;69.41;102263.34;4972989;28;20070;-84
2021/11/14 07:24:13;;;;;;;0.35;0.35;;;;;;;13.45;69.32;102270.47;4973111;28;20085;-83
2021/11/14 07:26:40;;;;;;;0.65;0.65;;;;;;;13.45;69.58;102267.81;4971787;28;20037;-84
2021/11/14 07:29:07;;;;;;;0.10;0.10;;;;;;;13.46;69.39;102272.25;4972656;28;20035;-84
2021/11/14 07:31:33;;;;;;;0.55;0.55;;;;;;;13.48;69.19;102282.88;4972594;28;20042;-84
2021/11/14 07:34:00;;;;;;;4.75;0.80;;;;;;;13.46;68.98;102280.22;4973204;28;20027;-83
2021/11/14 07:36:26;;;;;;;1.08;1.08;;;;;;;13.50;68.92;102281.09;4972854;28;20033;-83
2021/11/14 07:38:52;;;;;;;0.63;0.43;;;;;;;13.49;68.91;102289.97;4972620;28;20114;-84
2021/11/14 07:41:19;;;;;;;0.10;0.10;;;;;;;13.47;69.44;102287.31;4973113;28;20027;-84
2021/11/14 07:43:45;;;;;;;0.20;0.20;;;;;;;13.50;68.88;102287.28;4970191;28;20047;-85
2021/11/14 07:46:12;;;;;;;0.47;0.47;;;;;;;13.52;69.42;102293.50;4973257;28;20026;-84
2021/11/14 07:48:38;;;;;;;0.63;0.63;;;;;;;13.53;69.47;102294.34;4973009;28;20039;-84
2021/11/14 07:51:05;;;;;;;0.20;0.20;;;;;;;13.53;68.89;102297.91;4973458;28;20027;-84
2021/11/14 07:53:32;;;;;;;0.30;0.30;;;;;;;13.56;68.94;102307.66;4971810;28;20510;-84
2021/11/14 07:55:58;;;;;;;0.10;0.10;;;;;;;13.56;68.92;102311.19;4972169;28;20469;-84
2021/11/14 07:58:24;;;;;;;0.10;0.10;;;;;;;13.56;68.91;102313.84;4972836;28;20383;-84
2021/11/14 08:00:51;;;;;;;0.13;0.13;;;;;;;13.52;68.96;102317.47;4973663;28;20557;-84
2021/11/14 08:03:17;;;;;;;4.32;2.25;;;;;;;13.56;68.75;102313.84;4975775;28;20122;-84
2021/11/14 08:05:45;;;;;;;0.17;0.17;;;;;;;13.54;69.00;102320.97;4974720;28;20034;-84
2021/11/14 08:08:12;;;;;;;0.63;0.63;;;;;;;13.54;69.17;102323.63;4975606;28;20023;-83
2021/11/14 08:10:38;;;;;;;0.50;0.50;;;;;;;13.54;68.75;102326.28;4975897;28;20078;-84
2021/11/14 08:13:05;;;;;;;2.55;1.38;;;;;;;13.54;68.87;102330.75;4975743;28;20041;-83
2021/11/14 08:15:32;;;;;;;0.40;0.40;;;;;;;13.53;68.84;102327.22;4975226;28;20035;-84
2021/11/14 08:17:58;;;;;;;0.82;0.82;;;;;;;13.53;69.16;102335.19;4957762;28;20031;-84
2021/11/14 08:20:25;;;;;;;1.02;1.02;;;;;;;13.64;68.29;102342.22;4974351;28;20138;-84
2021/11/14 08:22:51;;;;;;;0.38;0.38;;;;;;;13.65;68.25;102338.66;4974185;28;20128;-85
2021/11/14 08:25:19;;;;;;;0.20;0.20;;;;;;;13.68;68.40;102338.59;4974571;28;20034;-85
2021/11/14 08:27:47;;;;;;;2.53;1.08;;;;;;;13.72;68.32;102343.00;4974363;28;20027;-84
2021/11/14 08:30:15;;;;;;;0.30;0.30;;;;;;;13.67;68.52;102345.72;4974533;28;20389;-85
2021/11/14 08:32:42;;;;;;;0.80;0.80;;;;;;;13.69;68.64;102351.03;4974759;28;20033;-84
2021/11/14 08:35:09;;;;;;;1.75;1.65;;;;;;;13.67;68.88;102347.50;4974281;28;20034;-84
2021/11/14 08:37:36;;;;;;;0.35;0.35;;;;;;;13.70;69.05;102348.34;4974596;28;20042;-84
2021/11/14 08:40:06;;;;;;;1.10;1.10;;;;;;;13.73;68.44;102348.34;4975805;28;20061;-84
2021/11/14 08:42:32;;;;;;;0.98;0.98;;;;;;;13.76;68.54;102352.75;4975027;28;20130;-85
2021/11/14 08:44:59;;;;;;;0.22;0.22;;;;;;;13.75;68.60;102350.97;4974545;28;20428;-84
2021/11/14 08:47:25;;;;;;;0.10;0.10;;;;;;;13.78;68.54;102353.59;4973338;28;20561;-84
2021/11/14 08:49:51;;;;;;;0.30;0.30;;;;;;;13.79;68.62;102347.38;4974552;28;20466;-84
2021/11/14 08:52:17;;;;;;;2.55;2.30;;;;;;;13.83;68.73;102348.25;4973951;28;20474;-84
2021/11/14 08:54:44;;;;;;;0.45;0.45;;;;;;;13.86;68.58;102353.56;4975137;28;20031;-84
2021/11/14 08:57:11;;;;;;;1.55;1.45;;;;;;;13.90;68.43;102357.94;4974890;28;20031;-84
2021/11/14 08:59:38;;;;;;;0.50;0.50;;;;;;;13.95;68.63;102355.25;4973615;28;20370;-84
2021/11/14 09:02:05;;;;;;;0.40;0.40;;;;;;;13.94;68.20;102359.66;4974924;28;20042;-84
2021/11/14 09:04:31;;;;;;;0.75;0.75;;;;;;;14.03;68.69;102356.03;4973581;28;20038;-84
2021/11/14 09:06:59;;;;;;;0.47;0.47;;;;;;;14.11;68.58;102359.50;4972894;28;20504;-84
2021/11/14 09:09:26;;;;;;;1.00;1.00;;;;;;;14.13;68.32;102368.38;4973696;28;20401;-84
2021/11/14 09:11:53;;;;;;;0.80;0.80;;;;;;;14.12;68.27;102371.94;4973440;28;20023;-84
2021/11/14 09:14:19;;;;;;;1.10;1.02;;;;;;;14.13;67.78;102365.72;4973631;28;20106;-83
2021/11/14 09:16:49;;;;;;;3.50;1.77;;;;;;;14.16;67.73;102370.13;4974831;28;20031;-85
2021/11/14 09:19:18;;;;;;;0.47;0.47;;;;;;;14.26;68.10;102378.94;4975243;28;20053;-84
2021/11/14 09:21:45;;;;;;;1.45;1.45;;;;;;;14.23;67.94;102380.72;4974623;28;20035;-85
2021/11/14 09:24:12;;;;;;;3.03;1.73;;;;;;;14.28;67.58;102388.66;4974693;28;20019;-84
2021/11/14 09:26:39;;;;;;;1.55;1.45;;;;;;;14.34;68.01;102393.03;4974886;28;20156;-85
2021/11/14 09:29:06;;;;;;;0.20;0.20;;;;;;;14.35;67.48;102397.47;4974163;28;20034;-84
2021/11/14 09:31:33;;;;;;;3.08;2.83;;;;;;;14.37;67.63;102393.00;4974156;28;20358;-84
2021/11/14 09:33:59;;;;;;;3.30;2.20;;;;;;;14.44;67.65;102399.16;4973576;28;20039;-85
2021/11/14 09:36:30;;;;;;;0.40;0.40;;;;;;;14.48;67.44;102403.53;4974155;28;20062;-85
2021/11/14 09:38:58;;;;;;;0.10;0.10;;;;;;;14.50;67.74;102405.28;4973862;28;20117;-84
2021/11/14 09:41:25;;;;;;;1.95;1.73;;;;;;;14.55;67.92;102407.91;4974105;28;20509;-84
2021/11/14 09:43:52;;;;;;;4.20;3.90;;;;;;;14.56;67.76;102418.56;4974529;28;20050;-85
2021/11/14 09:46:19;;;;;;;1.77;1.67;;;;;;;14.53;67.46;102421.28;4973854;28;20026;-83
2021/11/14 09:48:46;;;;;;;0.60;0.60;;;;;;;14.55;67.09;102424.81;4973324;28;20070;-83
2021/11/14 09:51:13;;;;;;;3.38;2.45;;;;;;;14.58;67.29;102423.91;4973922;28;20563;-85
2021/11/14 09:53:39;;;;;;;2.40;2.30;;;;;;;14.61;67.44;102428.31;4973173;28;20051;-84
2021/11/14 09:56:07;;;;;;;0.25;0.25;;;;;;;14.57;67.17;102432.78;4973664;28;20038;-85
2021/11/14 09:58:35;;;;;;;0.93;0.93;;;;;;;14.62;66.96;102432.75;4972152;28;20157;-84
2021/11/14 10:01:05;;;;;;;0.47;0.47;;;;;;;14.64;66.84;102434.50;4972825;28;20114;-85
2021/11/14 10:03:33;;;;;;;2.25;2.15;;;;;;;14.65;66.84;102435.41;4973861;28;20050;-85
2021/11/14 10:05:59;;;;;;;0.35;0.35;;;;;;;14.63;66.36;102442.50;4973559;28;20038;-85
2021/11/14 10:08:33;;;;;;;0.98;0.98;;;;;;;14.62;66.40;102440.75;4972729;28;20036;-85
2021/11/14 10:10:59;;;;;;;0.20;0.20;;;;;;;14.61;65.88;102438.97;4972920;28;20035;-85
2021/11/14 10:13:30;;;;;;;0.40;0.40;;;;;;;14.64;66.77;102444.25;4972601;28;20030;-85
2021/11/14 10:18:58;;;;;;;0.30;0.30;;;;;;;14.69;66.42;102451.38;5091704;27;20458;-84
2021/11/14 10:21:28;;;;;;;0.20;0.20;;;;;;;14.64;65.92;102445.16;5072016;28;20111;-85
2021/11/14 10:23:54;;;;;;;0.52;0.52;;;;;;;14.67;65.98;102449.63;5053351;28;20029;-85
2021/11/14 10:26:20;;;;;;;1.95;1.85;;;;;;;14.68;65.77;102451.38;5052378;28;20030;-84
2021/11/14 10:28:48;;;;;;;0.40;0.40;;;;;;;14.72;66.08;102455.78;5052264;28;20026;-84
2021/11/14 10:31:22;;;;;;;0.25;0.25;;;;;;;14.79;66.10;102454.81;5051596;28;20048;-84
2021/11/14 10:33:50;;;;;;;0.52;0.52;;;;;;;14.77;65.86;102458.41;5051631;28;20087;-84
2021/11/14 10:36:17;;;;;;;0.28;0.28;;;;;;;14.85;66.25;102457.41;5051607;28;20036;-85
2021/11/14 10:38:44;;;;;;;1.38;1.38;;;;;;;14.86;65.94;102463.63;5051737;28;20028;-83
2021/11/14 10:41:13;;;;;;;1.50;1.42;;;;;;;14.90;65.83;102456.44;5052061;28;20412;-84
2021/11/14 10:43:40;;;;;;;0.30;0.30;;;;;;;14.96;66.00;102467.94;5052083;28;20034;-84
2021/11/14 10:46:17;;;;;;;0.63;0.63;;;;;;;15.07;65.77;102457.13;5052144;28;20036;-84
2021/11/14 10:48:44;;;;;;;1.48;0.70;;;;;;;15.08;65.86;102472.25;5051821;28;20021;-84
2021/11/14 10:51:12;;;;;;;1.33;1.30;;;;;;;15.11;65.43;102472.19;5050014;28;20057;-84
2021/11/14 10:53:41;;;;;;;0.30;0.30;;;;;;;15.12;65.33;102473.97;5050472;28;20033;-84
2021/11/14 10:56:12;;;;;;;0.40;0.40;;;;;;;15.13;65.64;102475.72;5050689;28;20025;-85
2021/11/14 10:58:41;;;;;;;1.38;1.27;;;;;;;15.15;65.36;102479.28;5050642;28;20040;-87
2021/11/14 11:01:11;;;;;;;0.20;0.20;;;;;;;15.18;65.98;102481.88;5050885;28;20052;-85
2021/11/14 11:03:41;;;;;;;0.20;0.20;;;;;;;15.07;64.31;102491.81;5051087;28;20029;-86
2021/11/14 11:06:16;;;;;;;0.70;0.70;;;;;;;15.06;64.70;102487.38;5051390;28;20029;-86
2021/11/14 11:08:45;;;;;;;1.08;1.08;;;;;;;15.08;65.48;102482.91;5050775;28;20107;-85
2021/11/14 11:11:11;;;;;;;0.93;0.93;;;;;;;15.05;64.99;102488.28;5051503;28;20028;-88
2021/11/14 11:16:21;;;;;;;0.77;0.77;;;;;;;15.08;64.55;102492.69;5091628;27;20403;-85
2021/11/14 11:18:57;;;;;;;28.50;2.03;;;;;;;15.14;64.49;102484.59;5070705;28;20068;-86
2021/11/14 11:21:30;;;;;;;0.10;0.10;;;;;;;15.17;65.21;102488.13;5070758;28;20079;-86
2021/11/14 11:24:06;;;;;;;0.20;0.20;;;;;;;15.27;64.83;102490.69;5051978;28;20515;-86
2021/11/14 11:26:32;;;;;;;0.50;0.50;;;;;;;15.17;64.83;102488.13;5050335;28;20408;-85
2021/11/14 11:28:58;;;;;;;0.40;0.40;;;;;;;15.19;64.62;102486.34;5050105;28;20029;-86
2021/11/14 11:31:24;;;;;;;0.30;0.30;;;;;;;15.11;63.67;102485.53;5050388;28;20029;-85
2021/11/14 11:33:54;;;;;;;0.60;0.60;;;;;;;15.18;64.27;102483.69;5050183;28;20044;-86
2021/11/14 11:36:22;;;;;;;0.88;0.88;;;;;;;15.16;64.28;102489.03;5050526;28;20029;-86